Terminal Aerodrome Forecast
Issued by NWS Rapid City, SD

Home | Current Version | Previous Version | Graphics & Text | Print | Product List | Glossary Off
Versions: 1 2 3 4 5 6 7 8 9 10 11 12

932
FTUS43 KUNR 052320
TAFRAP
TAF
KRAP 052320Z 0600/0624 15008KT P6SM BKN250
     FM060600 21007KT P6SM BKN200
     FM061700 01015KT P6SM SCT120=

USA.gov is the U.S. government's official web portal to all federal, state and local government web resources and services.